Tulsa International Airport
KTUL : now visible

Airfield :











YOU CAN JOIN US ON...

 
LOGIN :

Register | Disclaimer

   EN    FR    IT 

 









Legend :    VFR   Marginal VFR   IFR   Intensive IFR   Very Intensive IFR
Visi :
Ceiling :
>= 8 km
>= 3000ft
5 to 8 km
1000 to 3000 ft
1500m to 5 km
500 to 1000 ft
800 to 1500m
200 to 500 ft
< 800m
< 200 ft
Symbols :   Thunderstorms  Fog  Heavy snow  Heavy precipitations  Wind > 20 kt






- Airport Elevation : 677 ft
- IATA code : TUL


KTUL - Tulsa International

CURRENT METAR :
  • 072053Z 16017G28KT 10SM FEW040 SCT150 BKN200 30/22 A2998 RMK AO2 PK WND 17028/2049 SLP143 ACC W-N-E T03000217 58017 $

EXPIRED METARs :
  • 071953Z 15015G24KT 10SM SCT120 SCT200 29/22 A3000 RMK AO2 SLP149 T02940222 $
  • 071853Z 12012KT 10SM FEW060 SCT120 SCT200 27/22 A3003 RMK AO2 SLP160 CB DSIPTD T02720222

TAF KTUL
Valid from the 07 at 18:00 until the 08 at 18:00 UTC


071737Z 0718/0818 17015G25KT P6SM FEW040 SCT120
FM080100 16013KT P6SM SCT150 WS020/20040KT
FM081300 17014G20KT P6SM SCT150
KZKC FIR / North America



MET'MAP, your aeronautical weather chart ! - Copyright ORBIFLY December 2007 - Disclaimer

ORBIFLY MET'MAP TEAM :

Programming & Development : Alexandra Zaïnal
Concept & original design : Baudouin d'Aumeries
Assistance for programming : Marc-Olivier Méhu
Technical & hardware support : Manuel Goepfert

Contact : metmap@orbifly.com




SOURCES & CREDITS :

   NOAA       Earth
Advisory